createdAt,value
2022-09-01T00:00:16.538Z,97733.31
2022-09-01T00:02:46.183Z,97734.09
2022-09-01T00:05:15.506Z,97746.56
2022-09-01T00:07:46.335Z,97744.19
2022-09-01T00:10:15.964Z,97745.72
2022-09-01T00:12:46.473Z,97752.66
2022-09-01T00:15:16.345Z,97756.59
2022-09-01T00:17:45.637Z,97764.63
2022-09-01T00:20:19.588Z,97767.28
2022-09-01T00:22:50.230Z,97769.50
2022-09-01T00:25:21.216Z,97769.50
2022-09-01T00:27:51.071Z,97769.91
2022-09-01T00:30:21.918Z,97770.72
2022-09-01T00:32:51.216Z,97784.34
2022-09-01T00:35:21.351Z,97780.47
2022-09-01T00:37:50.649Z,97780.75
2022-09-01T00:40:21.404Z,97790.06
2022-09-01T00:42:50.682Z,97796.69
2022-09-01T00:45:23.153Z,97791.41
2022-09-01T00:47:52.443Z,97796.88
2022-09-01T00:50:23.076Z,97791.88
2022-09-01T00:52:56.131Z,97796.03
2022-09-01T00:55:32.638Z,97799.16
2022-09-01T00:58:04.550Z,97789.81
2022-09-01T01:00:42.446Z,97804.34
2022-09-01T01:03:13.166Z,97813.56
2022-09-01T01:05:55.518Z,97801.84
2022-09-01T01:08:51.252Z,97803.53
2022-09-01T01:11:21.002Z,97809.47
2022-09-01T01:13:57.764Z,97814.91
2022-09-01T01:16:29.734Z,97821.59
2022-09-01T01:18:59.847Z,97823.56
2022-09-01T01:22:02.657Z,97833.91
2022-09-01T01:24:36.739Z,97842.41
2022-09-01T01:27:06.263Z,97838.34
2022-09-01T01:29:41.210Z,97842.00
2022-09-01T01:32:14.068Z,97836.97
2022-09-01T01:34:48.628Z,97839.38
2022-09-01T01:37:19.756Z,97845.34
2022-09-01T01:39:49.615Z,97846.03
2022-09-01T01:42:20.313Z,97845.66
2022-09-01T01:44:51.117Z,97847.06
2022-09-01T01:47:21.359Z,97855.59
2022-09-01T01:49:50.572Z,97851.69
2022-09-01T01:52:21.887Z,97852.69
2022-09-01T01:54:55.362Z,97856.47
2022-09-01T01:57:24.772Z,97859.94
2022-09-01T01:59:55.188Z,97855.22
2022-09-01T02:02:24.693Z,97866.66
2022-09-01T02:04:56.014Z,97867.22
2022-09-01T02:07:25.757Z,97867.50
2022-09-01T02:09:59.362Z,97862.78
2022-09-01T02:12:28.957Z,97868.94
2022-09-01T02:15:01.702Z,97870.63
2022-09-01T02:17:31.026Z,97872.72
2022-09-01T02:20:00.332Z,97876.50
2022-09-01T02:22:29.548Z,97873.16
2022-09-01T02:24:59.218Z,97872.91
2022-09-01T02:27:30.529Z,97873.91
2022-09-01T02:30:03.133Z,97879.75
2022-09-01T02:32:33.232Z,97878.78
2022-09-01T02:35:02.582Z,97877.69
2022-09-01T02:37:31.908Z,97877.81
2022-09-01T02:40:01.575Z,97872.41
2022-09-01T02:42:31.399Z,97878.84
2022-09-01T02:45:02.663Z,97884.25
2022-09-01T02:47:32.508Z,97889.75
2022-09-01T02:50:04.746Z,97882.72
2022-09-01T02:52:37.093Z,97884.56
2022-09-01T02:55:06.992Z,97888.63
2022-09-01T02:57:36.858Z,97898.38
2022-09-01T03:00:21.637Z,97901.72
2022-09-01T03:02:55.175Z,97901.44
2022-09-01T03:05:28.217Z,97899.47
2022-09-01T03:08:00.858Z,97910.50
2022-09-01T03:10:34.505Z,97912.56
2022-09-01T03:13:13.765Z,97914.28
2022-09-01T03:15:44.543Z,97924.81
2022-09-01T03:18:15.899Z,97921.38
2022-09-01T03:20:47.490Z,97924.00
2022-09-01T03:23:20.021Z,97924.28
2022-09-01T03:25:50.405Z,97928.44
2022-09-01T03:28:20.038Z,97933.88
2022-09-01T03:30:52.220Z,97930.66
2022-09-01T03:33:22.779Z,97941.25
2022-09-01T03:35:52.592Z,97940.41
2022-09-01T03:38:24.032Z,97950.16
2022-09-01T03:41:02.993Z,97944.72
2022-09-01T03:43:36.320Z,97955.88
2022-09-01T03:46:06.441Z,97948.78
2022-09-01T03:48:36.989Z,97955.44
2022-09-01T03:51:07.242Z,97958.16
2022-09-01T03:53:47.136Z,97967.75
2022-09-01T03:56:17.049Z,97963.13
2022-09-01T03:58:48.024Z,97963.69
2022-09-01T04:01:21.790Z,97956.16
2022-09-01T04:03:53.396Z,97963.97
2022-09-01T04:06:27.218Z,97966.44
2022-09-01T04:08:58.461Z,97970.44
2022-09-01T04:11:27.919Z,97972.78
2022-09-01T04:13:57.797Z,97968.81
2022-09-01T04:16:51.041Z,97971.09
2022-09-01T04:19:29.246Z,97973.16
2022-09-01T04:22:01.705Z,97970.56
2022-09-01T04:24:51.252Z,97979.66
2022-09-01T04:27:22.902Z,97977.19
2022-09-01T04:29:57.433Z,97977.94
2022-09-01T04:32:30.482Z,97969.50
2022-09-01T04:35:03.416Z,97970.78
2022-09-01T04:37:37.654Z,97979.03
2022-09-01T04:40:09.711Z,97983.06
2022-09-01T04:42:39.207Z,97969.47
2022-09-01T04:45:12.017Z,97961.53
2022-09-01T04:47:44.228Z,97981.28
2022-09-01T04:50:18.431Z,97978.34
2022-09-01T04:53:07.376Z,97975.13
2022-09-01T04:55:47.130Z,97978.03
2022-09-01T04:58:23.664Z,97982.25
2022-09-01T05:00:53.187Z,97989.44
2022-09-01T05:03:25.361Z,97984.63
2022-09-01T05:06:20.193Z,97979.94
2022-09-01T05:08:59.406Z,97975.78
2022-09-01T05:11:48.128Z,97984.44
2022-09-01T05:14:26.837Z,97985.38
2022-09-01T05:17:02.861Z,97985.56
2022-09-01T05:19:33.045Z,97985.88
2022-09-01T05:22:02.937Z,97985.56
2022-09-01T05:24:41.259Z,97992.25
2022-09-01T05:27:13.346Z,97979.31
2022-09-01T05:29:48.126Z,97982.13
2022-09-01T05:32:17.412Z,97982.00
2022-09-01T05:34:47.248Z,97987.69
2022-09-01T05:37:18.258Z,97986.75
2022-09-01T05:39:47.479Z,97992.16
2022-09-01T05:42:16.577Z,97977.53
2022-09-01T05:44:46.140Z,97974.19
2022-09-01T05:47:21.016Z,97978.84
2022-09-01T05:49:54.738Z,97968.72
2022-09-01T05:52:26.083Z,97974.41
2022-09-01T05:54:57.899Z,97975.75
2022-09-01T05:57:35.256Z,97965.59
2022-09-01T06:00:13.394Z,97974.56
2022-09-01T06:02:46.119Z,97964.13
2022-09-01T06:05:20.253Z,97963.59
2022-09-01T06:07:52.018Z,97965.94
2022-09-01T06:10:22.557Z,97952.91
2022-09-01T06:12:54.865Z,97956.09
2022-09-01T06:15:26.124Z,97959.56
2022-09-01T06:17:57.371Z,97956.91
2022-09-01T06:20:27.605Z,97958.06
2022-09-01T06:22:59.218Z,97954.22
2022-09-01T06:25:31.533Z,97954.53
2022-09-01T06:28:05.964Z,97953.84
2022-09-01T06:30:37.550Z,97953.19
2022-09-01T06:33:13.493Z,97948.78
2022-09-01T06:38:35.250Z,97946.63
2022-09-01T06:41:13.963Z,97946.53
2022-09-01T06:46:30.493Z,97950.41
2022-09-01T06:49:24.651Z,97949.50
2022-09-01T06:51:53.973Z,97942.34
2022-09-01T06:54:26.787Z,97950.53
2022-09-01T06:56:56.583Z,97949.78
2022-09-01T06:59:34.828Z,97944.66
2022-09-01T07:02:07.642Z,97945.34
2022-09-01T07:05:04.019Z,97942.97
2022-09-01T07:16:52.041Z,97937.47
2022-09-01T07:25:16.802Z,97920.59
2022-09-01T07:28:09.348Z,97914.44
2022-09-01T07:30:48.614Z,97919.28
2022-09-01T07:36:26.808Z,97911.59
2022-09-01T07:45:29.204Z,97896.28
2022-09-01T07:48:04.504Z,97892.28
2022-09-01T07:51:07.580Z,97886.28
2022-09-01T07:53:35.348Z,97885.75
2022-09-01T07:56:11.409Z,97881.59
2022-09-01T07:58:46.453Z,97879.56
2022-09-01T08:01:22.128Z,97879.41
2022-09-01T08:03:55.319Z,97877.22
2022-09-01T08:06:28.090Z,97880.50
2022-09-01T08:09:01.748Z,97866.00
2022-09-01T08:12:00.487Z,97864.84
2022-09-01T08:14:24.862Z,97865.59
2022-09-01T08:16:55.321Z,97859.91
2022-09-01T08:19:24.893Z,97860.22
2022-09-01T08:22:10.667Z,97862.19
2022-09-01T08:24:53.643Z,97858.84
2022-09-01T08:27:23.818Z,97853.03
2022-09-01T08:29:52.862Z,97841.16
2022-09-01T08:32:23.685Z,97839.34
2022-09-01T08:34:53.164Z,97839.09
2022-09-01T08:37:22.571Z,97845.31
2022-09-01T08:39:51.950Z,97841.16
2022-09-01T08:42:36.207Z,97840.53
2022-09-01T08:45:31.637Z,97838.88
2022-09-01T08:51:17.191Z,97853.16
2022-09-01T08:54:18.523Z,97840.13
2022-09-01T08:57:22.246Z,97846.34
2022-09-01T09:00:13.676Z,97824.09
2022-09-01T09:03:14.639Z,97845.09
2022-09-01T09:05:58.819Z,97847.78
2022-09-01T09:08:52.469Z,97842.09
2022-09-01T09:11:41.395Z,97818.38
2022-09-01T09:14:29.085Z,97816.94
2022-09-01T09:16:59.303Z,97829.66
2022-09-01T09:19:28.718Z,97827.09
2022-09-01T09:22:01.027Z,97819.06
2022-09-01T09:24:48.165Z,97801.47
2022-09-01T09:27:30.784Z,97794.50
2022-09-01T09:30:11.736Z,97795.16
2022-09-01T09:33:44.338Z,97786.50
2022-09-01T09:36:22.194Z,97772.81
2022-09-01T09:39:08.457Z,97766.41
2022-09-01T09:41:39.851Z,97768.22
2022-09-01T09:44:32.906Z,97769.22
2022-09-01T09:47:10.245Z,97771.22
2022-09-01T09:49:48.878Z,97768.41
2022-09-01T09:52:20.291Z,97768.13
2022-09-01T09:55:25.271Z,97760.56
2022-09-01T09:58:13.087Z,97753.78
2022-09-01T10:01:01.978Z,97744.03
2022-09-01T10:03:45.021Z,97744.38
2022-09-01T10:06:33.211Z,97731.22
2022-09-01T10:09:09.427Z,97730.34
2022-09-01T10:11:45.372Z,97732.38
2022-09-01T10:14:53.389Z,97723.22
2022-09-01T10:17:30.829Z,97718.44
2022-09-01T10:20:07.656Z,97711.75
2022-09-01T10:22:42.624Z,97716.41
2022-09-01T10:25:22.171Z,97706.28
2022-09-01T10:27:59.261Z,97706.59
2022-09-01T10:30:30.571Z,97697.09
2022-09-01T10:33:10.996Z,97696.28
2022-09-01T10:35:49.481Z,97691.97
2022-09-01T10:38:21.586Z,97688.13
2022-09-01T10:41:09.014Z,97689.81
2022-09-01T10:43:46.588Z,97682.81
2022-09-01T10:46:25.857Z,97677.50
2022-09-01T10:49:03.118Z,97676.00
2022-09-01T10:51:38.856Z,97682.34
2022-09-01T10:54:08.864Z,97677.16
2022-09-01T10:56:51.339Z,97675.00
2022-09-01T10:59:35.617Z,97670.53
2022-09-01T11:02:23.500Z,97671.34
2022-09-01T11:05:00.830Z,97665.53
2022-09-01T11:10:34.451Z,97657.75
2022-09-01T11:13:50.335Z,97665.22
2022-09-01T11:16:48.136Z,97654.91
2022-09-01T11:19:40.343Z,97657.25
2022-09-01T11:22:26.715Z,97651.09
2022-09-01T11:25:39.743Z,97652.25
2022-09-01T11:28:33.655Z,97637.97
2022-09-01T11:31:09.564Z,97645.94
2022-09-01T11:33:57.000Z,97646.47
2022-09-01T11:36:37.413Z,97644.78
2022-09-01T11:39:16.417Z,97643.28
2022-09-01T11:42:20.265Z,97637.63
2022-09-01T11:45:06.683Z,97647.94
2022-09-01T11:47:46.453Z,97645.28
2022-09-01T11:50:28.758Z,97646.75
2022-09-01T11:53:11.805Z,97641.97
2022-09-01T11:55:44.294Z,97652.91
2022-09-01T11:58:30.166Z,97658.38
2022-09-01T12:01:23.165Z,97652.63
2022-09-01T12:03:54.142Z,97657.41
2022-09-01T12:06:27.352Z,97660.72
2022-09-01T12:09:03.160Z,97663.56
2022-09-01T12:11:42.961Z,97666.91
2022-09-01T12:14:13.465Z,97671.53
2022-09-01T12:16:43.965Z,97670.38
2022-09-01T12:19:26.486Z,97667.22
2022-09-01T12:22:21.103Z,97675.72
2022-09-01T12:24:54.657Z,97664.72
2022-09-01T12:27:24.362Z,97666.03
2022-09-01T12:29:53.844Z,97671.16
2022-09-01T12:32:23.365Z,97664.47
2022-09-01T12:35:16.123Z,97662.81
2022-09-01T12:37:45.364Z,97652.47
2022-09-01T12:40:26.777Z,97658.13
2022-09-01T12:42:57.175Z,97659.75
2022-09-01T12:45:49.070Z,97657.13
2022-09-01T12:48:33.412Z,97654.44
2022-09-01T12:51:18.325Z,97660.06
2022-09-01T12:54:04.770Z,97652.75
2022-09-01T12:56:37.445Z,97658.53
2022-09-01T12:59:25.243Z,97657.47
2022-09-01T13:02:28.386Z,97668.31
2022-09-01T13:05:20.262Z,97665.28
2022-09-01T13:07:49.518Z,97658.94
2022-09-01T13:10:18.592Z,97667.25
2022-09-01T13:12:48.193Z,97659.59
2022-09-01T13:15:17.282Z,97660.75
2022-09-01T13:17:46.994Z,97667.50
2022-09-01T13:20:16.448Z,97668.84
2022-09-01T13:22:46.140Z,97666.53
2022-09-01T13:25:21.901Z,97667.16
2022-09-01T13:27:54.033Z,97671.75
2022-09-01T13:30:26.681Z,97675.63
2022-09-01T13:35:45.824Z,97673.13
2022-09-01T13:38:17.180Z,97672.56
2022-09-01T13:40:48.131Z,97672.97
2022-09-01T13:43:20.493Z,97680.22
2022-09-01T13:49:04.501Z,97688.09
2022-09-01T13:51:38.237Z,97680.31
2022-09-01T13:54:08.209Z,97686.38
2022-09-01T13:56:38.506Z,97693.91
2022-09-01T13:59:08.327Z,97701.22
2022-09-01T14:01:37.720Z,97696.22
2022-09-01T14:04:07.139Z,97693.31
2022-09-01T14:06:42.011Z,97698.97
2022-09-01T14:09:15.676Z,97698.28
2022-09-01T14:11:46.944Z,97698.06
2022-09-01T14:14:16.098Z,97700.84
2022-09-01T14:16:47.474Z,97704.22
2022-09-01T14:19:16.818Z,97713.75
2022-09-01T14:21:46.268Z,97714.59
2022-09-01T14:24:19.998Z,97730.31
2022-09-01T14:26:49.691Z,97729.66
2022-09-01T14:29:18.968Z,97734.19
2022-09-01T14:31:47.885Z,97731.16
2022-09-01T14:34:17.494Z,97729.84
2022-09-01T14:36:46.558Z,97739.47
2022-09-01T14:39:15.901Z,97742.44
2022-09-01T14:41:45.037Z,97748.13
2022-09-01T14:44:14.371Z,97755.56
2022-09-01T14:46:44.621Z,97769.69
2022-09-01T14:49:13.726Z,97765.09
2022-09-01T14:54:32.901Z,97762.47
2022-09-01T14:59:53.263Z,97785.69
2022-09-01T15:02:23.068Z,97780.38
2022-09-01T15:04:52.917Z,97778.41
2022-09-01T15:07:22.134Z,97791.28
2022-09-01T15:09:51.411Z,97787.25
2022-09-01T15:12:21.067Z,97790.19
2022-09-01T15:14:50.202Z,97786.16
2022-09-01T15:17:20.234Z,97778.50
2022-09-01T15:19:49.205Z,97786.00
2022-09-01T15:22:18.145Z,97786.31
2022-09-01T15:24:47.586Z,97800.66
2022-09-01T15:27:16.608Z,97797.44
2022-09-01T15:29:50.108Z,97808.31
2022-09-01T15:32:28.058Z,97810.88
2022-09-01T15:34:57.816Z,97807.94
2022-09-01T15:37:27.005Z,97806.25
2022-09-01T15:39:56.394Z,97809.06
2022-09-01T15:42:25.426Z,97808.63
2022-09-01T15:44:54.808Z,97805.44
2022-09-01T15:47:23.864Z,97805.03
2022-09-01T15:49:53.098Z,97810.63
2022-09-01T15:52:22.203Z,97813.38
2022-09-01T15:54:51.201Z,97807.69
2022-09-01T15:57:20.425Z,97813.13
2022-09-01T15:59:50.058Z,97817.84
2022-09-01T16:02:22.117Z,97818.94
2022-09-01T16:04:51.213Z,97815.34
2022-09-01T16:07:20.638Z,97811.84
2022-09-01T16:09:49.666Z,97808.66
2022-09-01T16:12:22.245Z,97814.91
2022-09-01T16:14:52.591Z,97822.56
2022-09-01T16:17:52.926Z,97817.84
2022-09-01T16:20:29.932Z,97813.66
2022-09-01T16:23:22.856Z,97813.41
2022-09-01T16:25:54.145Z,97811.56
2022-09-01T16:28:33.049Z,97809.88
2022-09-01T16:31:14.928Z,97816.44
2022-09-01T16:33:51.968Z,97823.41
2022-09-01T16:36:29.996Z,97824.81
2022-09-01T16:39:27.048Z,97824.09
2022-09-01T16:42:39.329Z,97828.69
2022-09-01T16:45:17.237Z,97833.59
2022-09-01T16:47:55.411Z,97832.47
2022-09-01T16:50:55.401Z,97833.84
2022-09-01T16:53:33.381Z,97829.53
2022-09-01T16:56:29.220Z,97837.03
2022-09-01T17:01:58.360Z,97843.16
2022-09-01T17:05:02.849Z,97838.72
2022-09-01T17:07:41.167Z,97852.38
2022-09-01T17:10:25.890Z,97851.09
2022-09-01T17:12:57.358Z,97855.28
2022-09-01T17:15:42.054Z,97854.03
2022-09-01T17:18:23.321Z,97853.47
2022-09-01T17:21:10.165Z,97844.56
2022-09-01T17:23:47.383Z,97845.81
2022-09-01T17:26:25.184Z,97847.88
2022-09-01T17:28:59.532Z,97840.94
2022-09-01T17:31:45.460Z,97839.81
2022-09-01T17:34:42.935Z,97843.31
2022-09-01T17:37:29.153Z,97840.94
2022-09-01T17:40:06.994Z,97839.09
2022-09-01T17:42:45.043Z,97846.00
2022-09-01T17:45:46.643Z,97842.13
2022-09-01T17:48:28.124Z,97847.31
2022-09-01T17:51:22.328Z,97836.97
2022-09-01T17:54:02.914Z,97842.53
2022-09-01T17:56:55.658Z,97845.31
2022-09-01T17:59:36.610Z,97850.34
2022-09-01T18:02:20.886Z,97851.69
2022-09-01T18:05:07.803Z,97847.97
2022-09-01T18:07:55.598Z,97853.91
2022-09-01T18:10:30.745Z,97855.34
2022-09-01T18:13:06.095Z,97849.47
2022-09-01T18:16:04.265Z,97858.09
2022-09-01T18:18:42.791Z,97854.19
2022-09-01T18:21:18.079Z,97855.56
2022-09-01T18:23:50.504Z,97852.50
2022-09-01T18:26:30.472Z,97849.50
2022-09-01T18:29:05.898Z,97850.72
2022-09-01T18:31:53.134Z,97850.16
2022-09-01T18:34:37.925Z,97854.34
2022-09-01T18:37:38.443Z,97855.31
2022-09-01T18:40:13.532Z,97849.56
2022-09-01T18:42:42.731Z,97850.66
2022-09-01T18:45:36.838Z,97849.31
2022-09-01T18:48:26.933Z,97848.16
2022-09-01T18:51:32.542Z,97844.97
2022-09-01T18:54:16.231Z,97839.44
2022-09-01T18:57:07.250Z,97841.94
2022-09-01T18:59:45.246Z,97835.81
2022-09-01T19:02:32.534Z,97836.94
2022-09-01T19:05:28.957Z,97845.53
2022-09-01T19:08:17.531Z,97833.88
2022-09-01T19:11:04.774Z,97826.75
2022-09-01T19:13:55.221Z,97838.72
2022-09-01T19:16:49.333Z,97834.16
2022-09-01T19:19:44.629Z,97832.22
2022-09-01T19:22:33.172Z,97836.25
2022-09-01T19:25:25.039Z,97836.63
2022-09-01T19:28:08.387Z,97833.72
2022-09-01T19:30:43.978Z,97830.22
2022-09-01T19:33:18.043Z,97826.19
2022-09-01T19:35:49.135Z,97822.72
2022-09-01T19:38:28.804Z,97814.94
2022-09-01T19:41:11.369Z,97821.91
2022-09-01T19:43:41.537Z,97818.16
2022-09-01T19:46:28.205Z,97824.38
2022-09-01T19:49:27.856Z,97817.69
2022-09-01T19:51:59.953Z,97819.06
2022-09-01T19:54:45.976Z,97817.38
2022-09-01T19:57:29.784Z,97814.91
2022-09-01T20:00:17.288Z,97805.16
2022-09-01T20:03:09.765Z,97812.94
2022-09-01T20:06:05.629Z,97816.00
2022-09-01T20:08:55.084Z,97808.19
2022-09-01T20:11:42.445Z,97816.16
2022-09-01T20:14:37.395Z,97812.06
2022-09-01T20:17:09.873Z,97808.69
2022-09-01T20:19:47.996Z,97809.91
2022-09-01T20:22:31.123Z,97812.06
2022-09-01T20:25:14.233Z,97808.06
2022-09-01T20:28:02.020Z,97810.34
2022-09-01T20:30:41.017Z,97814.19
2022-09-01T20:33:36.154Z,97813.78
2022-09-01T20:36:24.649Z,97805.88
2022-09-01T20:39:30.953Z,97804.50
2022-09-01T20:42:34.365Z,97796.84
2022-09-01T20:45:19.504Z,97793.47
2022-09-01T20:48:00.550Z,97790.28
2022-09-01T20:51:02.320Z,97792.22
2022-09-01T20:54:05.336Z,97792.78
2022-09-01T20:57:03.028Z,97794.28
2022-09-01T20:59:59.111Z,97794.97
2022-09-01T21:02:44.592Z,97783.03
2022-09-01T21:05:24.233Z,97795.75
2022-09-01T21:08:29.094Z,97782.63
2022-09-01T21:11:32.043Z,97788.63
2022-09-01T21:14:21.367Z,97783.81
2022-09-01T21:16:59.539Z,97785.75
2022-09-01T21:19:40.925Z,97790.22
2022-09-01T21:22:15.703Z,97788.59
2022-09-01T21:24:47.674Z,97776.03
2022-09-01T21:27:34.435Z,97783.63
2022-09-01T21:30:10.561Z,97779.13
2022-09-01T21:32:40.937Z,97777.88
2022-09-01T21:35:13.444Z,97779.13
2022-09-01T21:37:42.789Z,97788.59
2022-09-01T21:40:13.657Z,97785.41
2022-09-01T21:42:57.110Z,97787.09
2022-09-01T21:45:27.061Z,97783.72
2022-09-01T21:47:56.900Z,97788.59
2022-09-01T21:50:27.194Z,97788.31
2022-09-01T21:52:56.298Z,97790.97
2022-09-01T21:55:25.989Z,97794.28
2022-09-01T21:57:56.596Z,97794.97
2022-09-01T22:00:31.089Z,97790.53
2022-09-01T22:03:02.830Z,97795.09
2022-09-01T22:05:32.566Z,97798.94
2022-09-01T22:08:02.707Z,97796.03
2022-09-01T22:10:32.803Z,97793.88
2022-09-01T22:13:04.780Z,97790.50
2022-09-01T22:15:33.916Z,97800.75
2022-09-01T22:18:03.181Z,97805.97
2022-09-01T22:20:32.995Z,97796.84
2022-09-01T22:23:03.084Z,97796.56
2022-09-01T22:25:34.710Z,97794.38
2022-09-01T22:28:06.718Z,97800.09
2022-09-01T22:30:36.264Z,97803.28
2022-09-01T22:33:08.736Z,97805.47
2022-09-01T22:35:43.175Z,97800.53
2022-09-01T22:38:12.866Z,97803.97
2022-09-01T22:40:47.251Z,97807.50
2022-09-01T22:43:19.345Z,97804.94
2022-09-01T22:45:50.622Z,97802.28
2022-09-01T22:48:22.377Z,97805.47
2022-09-01T22:50:52.558Z,97815.06
2022-09-01T22:53:23.127Z,97806.56
2022-09-01T22:55:53.912Z,97808.25
2022-09-01T22:58:22.961Z,97810.69
2022-09-01T23:00:56.997Z,97811.00
2022-09-01T23:03:26.326Z,97813.69
2022-09-01T23:06:21.836Z,97817.81
2022-09-01T23:09:03.066Z,97814.06
2022-09-01T23:11:32.535Z,97816.84
2022-09-01T23:14:01.791Z,97823.09
2022-09-01T23:16:30.854Z,97821.41
2022-09-01T23:19:00.404Z,97832.66
2022-09-01T23:21:32.654Z,97824.03
2022-09-01T23:24:02.144Z,97825.25
2022-09-01T23:26:32.980Z,97827.00
2022-09-01T23:29:03.379Z,97828.97
2022-09-01T23:31:35.696Z,97831.97
2022-09-01T23:34:07.903Z,97839.50
2022-09-01T23:36:38.484Z,97832.50
2022-09-01T23:39:08.036Z,97835.75
2022-09-01T23:41:39.469Z,97841.94
2022-09-01T23:44:10.688Z,97841.84
2022-09-01T23:46:43.943Z,97849.22
2022-09-01T23:49:15.663Z,97855.56
2022-09-01T23:51:46.912Z,97852.94
2022-09-01T23:54:17.109Z,97862.44
2022-09-01T23:56:47.176Z,97860.84
2022-09-01T23:59:16.447Z,97860.75
